sensor_id;sensor_type;location;lat;lon;timestamp;temperature;humidity
21508;DHT22;10915;54.352;9.074;2024-03-07T00:02:17;1.90;99.90
21508;DHT22;10915;54.352;9.074;2024-03-07T00:04:43;2.10;99.90
21508;DHT22;10915;54.352;9.074;2024-03-07T00:07:09;2.20;99.90
21508;DHT22;10915;54.352;9.074;2024-03-07T00:09:35;2.30;99.90
21508;DHT22;10915;54.352;9.074;2024-03-07T00:12:02;2.40;99.90
21508;DHT22;10915;54.352;9.074;2024-03-07T00:14:27;2.50;99.90
21508;DHT22;10915;54.352;9.074;2024-03-07T00:16:56;2.60;99.90
21508;DHT22;10915;54.352;9.074;2024-03-07T00:19:22;2.60;99.90
21508;DHT22;10915;54.352;9.074;2024-03-07T00:21:58;2.70;99.90
21508;DHT22;10915;54.352;9.074;2024-03-07T00:24:24;2.80;99.90
21508;DHT22;10915;54.352;9.074;2024-03-07T00:26:50;2.90;99.90
21508;DHT22;10915;54.352;9.074;2024-03-07T00:29:17;3.00;99.90
21508;DHT22;10915;54.352;9.074;2024-03-07T00:31:44;3.00;99.90
21508;DHT22;10915;54.352;9.074;2024-03-07T00:34:14;3.10;99.90
21508;DHT22;10915;54.352;9.074;2024-03-07T00:36:45;3.20;99.90
21508;DHT22;10915;54.352;9.074;2024-03-07T00:39:11;3.20;99.90
21508;DHT22;10915;54.352;9.074;2024-03-07T00:41:40;3.20;99.90
21508;DHT22;10915;54.352;9.074;2024-03-07T00:44:07;3.30;99.90
21508;DHT22;10915;54.352;9.074;2024-03-07T00:46:37;3.30;99.90
21508;DHT22;10915;54.352;9.074;2024-03-07T00:49:04;3.40;99.90
21508;DHT22;10915;54.352;9.074;2024-03-07T00:51:31;3.40;99.90
21508;DHT22;10915;54.352;9.074;2024-03-07T00:53:56;3.40;99.90
21508;DHT22;10915;54.352;9.074;2024-03-07T00:56:23;3.50;99.90
21508;DHT22;10915;54.352;9.074;2024-03-07T00:58:50;3.50;99.90
21508;DHT22;10915;54.352;9.074;2024-03-07T01:01:17;3.60;99.90
21508;DHT22;10915;54.352;9.074;2024-03-07T01:03:44;3.60;99.90
21508;DHT22;10915;54.352;9.074;2024-03-07T01:06:10;3.70;99.90
21508;DHT22;10915;54.352;9.074;2024-03-07T01:08:36;3.70;99.90
21508;DHT22;10915;54.352;9.074;2024-03-07T01:11:03;3.70;99.90
21508;DHT22;10915;54.352;9.074;2024-03-07T01:13:39;3.70;99.90
21508;DHT22;10915;54.352;9.074;2024-03-07T01:16:06;3.80;99.90
21508;DHT22;10915;54.352;9.074;2024-03-07T01:18:51;3.80;99.90
21508;DHT22;10915;54.352;9.074;2024-03-07T01:21:25;3.80;99.90
21508;DHT22;10915;54.352;9.074;2024-03-07T01:23:54;3.90;99.90
21508;DHT22;10915;54.352;9.074;2024-03-07T01:27:16;3.90;99.90
21508;DHT22;10915;54.352;9.074;2024-03-07T01:29:54;3.90;99.90
21508;DHT22;10915;54.352;9.074;2024-03-07T01:32:54;4.00;99.90
21508;DHT22;10915;54.352;9.074;2024-03-07T01:35:32;4.00;99.90
21508;DHT22;10915;54.352;9.074;2024-03-07T01:38:17;4.00;99.90
21508;DHT22;10915;54.352;9.074;2024-03-07T01:40:53;4.00;99.90
21508;DHT22;10915;54.352;9.074;2024-03-07T01:43:28;3.90;99.90
21508;DHT22;10915;54.352;9.074;2024-03-07T01:46:07;3.80;99.90
21508;DHT22;10915;54.352;9.074;2024-03-07T01:48:50;3.80;99.90
21508;DHT22;10915;54.352;9.074;2024-03-07T01:51:36;3.80;99.90
21508;DHT22;10915;54.352;9.074;2024-03-07T01:54:12;3.90;99.90
21508;DHT22;10915;54.352;9.074;2024-03-07T01:56:48;3.90;99.90
21508;DHT22;10915;54.352;9.074;2024-03-07T01:59:15;4.00;99.90
21508;DHT22;10915;54.352;9.074;2024-03-07T02:01:42;4.00;99.90
21508;DHT22;10915;54.352;9.074;2024-03-07T02:04:17;4.00;99.90
21508;DHT22;10915;54.352;9.074;2024-03-07T02:06:52;4.10;99.90
21508;DHT22;10915;54.352;9.074;2024-03-07T02:09:29;4.10;99.90
21508;DHT22;10915;54.352;9.074;2024-03-07T02:12:04;4.00;99.90
21508;DHT22;10915;54.352;9.074;2024-03-07T02:14:38;4.00;99.90
21508;DHT22;10915;54.352;9.074;2024-03-07T02:17:12;4.00;99.90
21508;DHT22;10915;54.352;9.074;2024-03-07T02:19:44;4.00;99.90
21508;DHT22;10915;54.352;9.074;2024-03-07T02:22:12;4.00;99.90
21508;DHT22;10915;54.352;9.074;2024-03-07T02:24:46;3.90;99.90
21508;DHT22;10915;54.352;9.074;2024-03-07T02:27:14;3.90;99.90
21508;DHT22;10915;54.352;9.074;2024-03-07T02:29:46;3.90;99.90
21508;DHT22;10915;54.352;9.074;2024-03-07T02:32:22;3.90;99.90
21508;DHT22;10915;54.352;9.074;2024-03-07T02:34:55;3.80;99.90
21508;DHT22;10915;54.352;9.074;2024-03-07T02:37:43;3.80;99.90
21508;DHT22;10915;54.352;9.074;2024-03-07T02:40:24;3.80;99.90
21508;DHT22;10915;54.352;9.074;2024-03-07T02:42:50;3.80;99.90
21508;DHT22;10915;54.352;9.074;2024-03-07T02:45:34;3.70;99.90
21508;DHT22;10915;54.352;9.074;2024-03-07T02:48:01;3.70;99.90
21508;DHT22;10915;54.352;9.074;2024-03-07T02:50:30;3.70;99.90
21508;DHT22;10915;54.352;9.074;2024-03-07T02:52:57;3.70;99.90
21508;DHT22;10915;54.352;9.074;2024-03-07T02:55:24;3.70;99.90
21508;DHT22;10915;54.352;9.074;2024-03-07T02:57:50;3.70;99.90
21508;DHT22;10915;54.352;9.074;2024-03-07T03:00:16;3.70;99.90
21508;DHT22;10915;54.352;9.074;2024-03-07T03:02:46;3.80;99.90
21508;DHT22;10915;54.352;9.074;2024-03-07T03:05:14;3.80;99.90
21508;DHT22;10915;54.352;9.074;2024-03-07T03:07:46;3.80;99.90
21508;DHT22;10915;54.352;9.074;2024-03-07T03:10:24;3.80;99.90
21508;DHT22;10915;54.352;9.074;2024-03-07T03:13:08;3.80;99.90
21508;DHT22;10915;54.352;9.074;2024-03-07T03:15:34;3.70;99.90
21508;DHT22;10915;54.352;9.074;2024-03-07T03:18:01;3.70;99.90
21508;DHT22;10915;54.352;9.074;2024-03-07T03:20:28;3.80;99.90
21508;DHT22;10915;54.352;9.074;2024-03-07T03:23:00;3.70;99.90
21508;DHT22;10915;54.352;9.074;2024-03-07T03:25:28;3.80;99.90
21508;DHT22;10915;54.352;9.074;2024-03-07T03:27:54;3.80;99.90
21508;DHT22;10915;54.352;9.074;2024-03-07T03:30:20;3.70;99.90
21508;DHT22;10915;54.352;9.074;2024-03-07T03:32:47;3.70;99.90
21508;DHT22;10915;54.352;9.074;2024-03-07T03:35:14;3.70;99.90
21508;DHT22;10915;54.352;9.074;2024-03-07T03:37:42;3.70;99.90
21508;DHT22;10915;54.352;9.074;2024-03-07T03:40:09;3.70;99.90
21508;DHT22;10915;54.352;9.074;2024-03-07T03:42:42;3.70;99.90
21508;DHT22;10915;54.352;9.074;2024-03-07T03:45:09;3.60;99.90
21508;DHT22;10915;54.352;9.074;2024-03-07T03:47:40;3.60;99.90
21508;DHT22;10915;54.352;9.074;2024-03-07T03:50:08;3.60;99.90
21508;DHT22;10915;54.352;9.074;2024-03-07T03:52:34;3.60;99.90
21508;DHT22;10915;54.352;9.074;2024-03-07T03:55:06;3.60;99.90
21508;DHT22;10915;54.352;9.074;2024-03-07T03:57:32;3.60;99.90
21508;DHT22;10915;54.352;9.074;2024-03-07T04:00:04;3.50;99.90
21508;DHT22;10915;54.352;9.074;2024-03-07T04:02:48;3.50;99.90
21508;DHT22;10915;54.352;9.074;2024-03-07T04:05:16;3.50;99.90
21508;DHT22;10915;54.352;9.074;2024-03-07T04:07:42;3.50;99.90
21508;DHT22;10915;54.352;9.074;2024-03-07T04:10:08;3.50;99.90
21508;DHT22;10915;54.352;9.074;2024-03-07T04:12:35;3.40;99.90
21508;DHT22;10915;54.352;9.074;2024-03-07T04:15:10;3.30;99.90
21508;DHT22;10915;54.352;9.074;2024-03-07T04:17:39;3.40;99.90
21508;DHT22;10915;54.352;9.074;2024-03-07T04:20:06;3.30;99.90
21508;DHT22;10915;54.352;9.074;2024-03-07T04:22:35;3.30;99.90
21508;DHT22;10915;54.352;9.074;2024-03-07T04:25:05;3.20;99.90
21508;DHT22;10915;54.352;9.074;2024-03-07T04:27:32;3.10;99.90
21508;DHT22;10915;54.352;9.074;2024-03-07T04:29:58;3.10;99.90
21508;DHT22;10915;54.352;9.074;2024-03-07T04:32:23;3.10;99.90
21508;DHT22;10915;54.352;9.074;2024-03-07T04:34:49;3.00;99.90
21508;DHT22;10915;54.352;9.074;2024-03-07T04:37:15;2.90;99.90
21508;DHT22;10915;54.352;9.074;2024-03-07T04:39:41;2.90;99.90
21508;DHT22;10915;54.352;9.074;2024-03-07T04:42:08;2.80;99.90
21508;DHT22;10915;54.352;9.074;2024-03-07T04:44:35;2.80;99.90
21508;DHT22;10915;54.352;9.074;2024-03-07T04:47:02;2.70;99.90
21508;DHT22;10915;54.352;9.074;2024-03-07T04:49:29;2.70;99.90
21508;DHT22;10915;54.352;9.074;2024-03-07T04:51:56;2.70;99.90
21508;DHT22;10915;54.352;9.074;2024-03-07T04:54:26;2.70;99.90
21508;DHT22;10915;54.352;9.074;2024-03-07T04:56:53;2.80;99.90
21508;DHT22;10915;54.352;9.074;2024-03-07T04:59:19;2.70;99.90
21508;DHT22;10915;54.352;9.074;2024-03-07T05:01:46;2.70;99.90
21508;DHT22;10915;54.352;9.074;2024-03-07T05:04:13;2.80;99.90
21508;DHT22;10915;54.352;9.074;2024-03-07T05:06:40;2.80;99.90
21508;DHT22;10915;54.352;9.074;2024-03-07T05:09:07;2.70;99.90
21508;DHT22;10915;54.352;9.074;2024-03-07T05:11:34;2.70;99.90
21508;DHT22;10915;54.352;9.074;2024-03-07T05:14:00;2.70;99.90
21508;DHT22;10915;54.352;9.074;2024-03-07T05:16:30;2.70;99.90
21508;DHT22;10915;54.352;9.074;2024-03-07T05:18:59;2.70;99.90
21508;DHT22;10915;54.352;9.074;2024-03-07T05:21:28;2.60;99.90
21508;DHT22;10915;54.352;9.074;2024-03-07T05:24:03;2.60;99.90
21508;DHT22;10915;54.352;9.074;2024-03-07T05:26:30;2.70;99.90
21508;DHT22;10915;54.352;9.074;2024-03-07T05:29:08;2.60;99.90
21508;DHT22;10915;54.352;9.074;2024-03-07T05:31:38;2.70;99.90
21508;DHT22;10915;54.352;9.074;2024-03-07T05:34:09;2.60;99.90
21508;DHT22;10915;54.352;9.074;2024-03-07T05:36:35;2.60;99.90
21508;DHT22;10915;54.352;9.074;2024-03-07T05:39:02;2.60;99.90
21508;DHT22;10915;54.352;9.074;2024-03-07T05:41:36;2.50;99.90
21508;DHT22;10915;54.352;9.074;2024-03-07T05:44:02;2.50;99.90
21508;DHT22;10915;54.352;9.074;2024-03-07T05:46:27;2.50;99.90
21508;DHT22;10915;54.352;9.074;2024-03-07T05:48:53;2.50;99.90
21508;DHT22;10915;54.352;9.074;2024-03-07T05:51:24;2.50;99.90
21508;DHT22;10915;54.352;9.074;2024-03-07T05:53:50;2.60;99.90
21508;DHT22;10915;54.352;9.074;2024-03-07T05:56:17;2.60;99.90
21508;DHT22;10915;54.352;9.074;2024-03-07T05:58:43;2.60;99.90
21508;DHT22;10915;54.352;9.074;2024-03-07T06:01:09;2.60;99.90
21508;DHT22;10915;54.352;9.074;2024-03-07T06:03:35;2.60;99.90
21508;DHT22;10915;54.352;9.074;2024-03-07T06:06:01;2.50;99.90
21508;DHT22;10915;54.352;9.074;2024-03-07T06:08:27;2.40;99.90
21508;DHT22;10915;54.352;9.074;2024-03-07T06:10:55;2.40;99.90
21508;DHT22;10915;54.352;9.074;2024-03-07T06:13:21;2.40;99.90
21508;DHT22;10915;54.352;9.074;2024-03-07T06:15:47;2.40;99.90
21508;DHT22;10915;54.352;9.074;2024-03-07T06:18:14;2.40;99.90
21508;DHT22;10915;54.352;9.074;2024-03-07T06:20:40;2.40;99.90
21508;DHT22;10915;54.352;9.074;2024-03-07T06:23:06;2.50;99.90
21508;DHT22;10915;54.352;9.074;2024-03-07T06:25:34;2.40;99.90
21508;DHT22;10915;54.352;9.074;2024-03-07T06:28:03;2.50;99.90
21508;DHT22;10915;54.352;9.074;2024-03-07T06:30:39;2.50;99.90
21508;DHT22;10915;54.352;9.074;2024-03-07T06:33:06;2.50;99.90
21508;DHT22;10915;54.352;9.074;2024-03-07T06:35:32;2.40;99.90
21508;DHT22;10915;54.352;9.074;2024-03-07T06:38:03;2.40;99.90
21508;DHT22;10915;54.352;9.074;2024-03-07T06:40:29;2.40;99.90
21508;DHT22;10915;54.352;9.074;2024-03-07T06:42:55;2.40;99.90
21508;DHT22;10915;54.352;9.074;2024-03-07T06:45:22;2.40;99.90
21508;DHT22;10915;54.352;9.074;2024-03-07T06:47:50;2.30;99.90
21508;DHT22;10915;54.352;9.074;2024-03-07T06:50:18;2.40;99.90
21508;DHT22;10915;54.352;9.074;2024-03-07T06:52:48;2.30;99.90
21508;DHT22;10915;54.352;9.074;2024-03-07T06:55:18;2.30;99.90
21508;DHT22;10915;54.352;9.074;2024-03-07T06:57:45;2.30;99.90
21508;DHT22;10915;54.352;9.074;2024-03-07T07:00:12;2.40;99.90
21508;DHT22;10915;54.352;9.074;2024-03-07T07:02:41;2.40;99.90
21508;DHT22;10915;54.352;9.074;2024-03-07T07:05:07;2.40;99.90
21508;DHT22;10915;54.352;9.074;2024-03-07T07:07:42;2.50;99.90
21508;DHT22;10915;54.352;9.074;2024-03-07T07:10:09;2.50;99.90
21508;DHT22;10915;54.352;9.074;2024-03-07T07:12:47;2.60;99.90
21508;DHT22;10915;54.352;9.074;2024-03-07T07:15:16;2.60;99.90
21508;DHT22;10915;54.352;9.074;2024-03-07T07:17:47;2.60;99.90
21508;DHT22;10915;54.352;9.074;2024-03-07T07:20:15;2.60;99.90
21508;DHT22;10915;54.352;9.074;2024-03-07T07:22:41;2.70;99.90
21508;DHT22;10915;54.352;9.074;2024-03-07T07:25:08;2.90;99.90
21508;DHT22;10915;54.352;9.074;2024-03-07T07:27:46;3.00;99.90
21508;DHT22;10915;54.352;9.074;2024-03-07T07:30:14;3.20;99.90
21508;DHT22;10915;54.352;9.074;2024-03-07T07:32:40;3.50;99.90
21508;DHT22;10915;54.352;9.074;2024-03-07T07:35:07;3.70;99.90
21508;DHT22;10915;54.352;9.074;2024-03-07T07:37:35;3.70;99.90
21508;DHT22;10915;54.352;9.074;2024-03-07T07:40:02;3.70;99.90
21508;DHT22;10915;54.352;9.074;2024-03-07T07:42:28;3.60;99.90
21508;DHT22;10915;54.352;9.074;2024-03-07T07:44:54;3.90;99.90
21508;DHT22;10915;54.352;9.074;2024-03-07T07:47:19;4.60;99.90
21508;DHT22;10915;54.352;9.074;2024-03-07T07:49:45;5.00;99.90
21508;DHT22;10915;54.352;9.074;2024-03-07T07:52:11;5.50;99.90
21508;DHT22;10915;54.352;9.074;2024-03-07T07:54:42;6.00;99.90
21508;DHT22;10915;54.352;9.074;2024-03-07T07:57:07;6.20;99.90
21508;DHT22;10915;54.352;9.074;2024-03-07T07:59:36;6.20;99.90
21508;DHT22;10915;54.352;9.074;2024-03-07T08:02:02;6.20;99.90
21508;DHT22;10915;54.352;9.074;2024-03-07T08:04:31;6.50;99.90
21508;DHT22;10915;54.352;9.074;2024-03-07T08:06:58;6.60;99.90
21508;DHT22;10915;54.352;9.074;2024-03-07T08:09:23;6.50;99.90
21508;DHT22;10915;54.352;9.074;2024-03-07T08:11:49;6.10;99.90
21508;DHT22;10915;54.352;9.074;2024-03-07T08:14:15;6.10;99.90
21508;DHT22;10915;54.352;9.074;2024-03-07T08:16:41;5.90;99.90
21508;DHT22;10915;54.352;9.074;2024-03-07T08:19:06;5.70;99.90
21508;DHT22;10915;54.352;9.074;2024-03-07T08:21:34;5.70;99.90
21508;DHT22;10915;54.352;9.074;2024-03-07T08:23:59;5.60;99.90
21508;DHT22;10915;54.352;9.074;2024-03-07T08:26:29;5.50;99.90
21508;DHT22;10915;54.352;9.074;2024-03-07T08:28:54;5.50;99.90
21508;DHT22;10915;54.352;9.074;2024-03-07T08:31:20;5.50;99.90
21508;DHT22;10915;54.352;9.074;2024-03-07T08:33:45;5.30;99.90
21508;DHT22;10915;54.352;9.074;2024-03-07T08:36:12;5.00;99.90
21508;DHT22;10915;54.352;9.074;2024-03-07T08:38:37;5.00;99.90
21508;DHT22;10915;54.352;9.074;2024-03-07T08:41:03;5.10;99.90
21508;DHT22;10915;54.352;9.074;2024-03-07T08:43:28;5.20;99.90
21508;DHT22;10915;54.352;9.074;2024-03-07T08:45:54;5.10;99.90
21508;DHT22;10915;54.352;9.074;2024-03-07T08:48:22;5.00;99.90
21508;DHT22;10915;54.352;9.074;2024-03-07T08:50:48;4.90;99.90
21508;DHT22;10915;54.352;9.074;2024-03-07T08:53:14;4.80;99.90
21508;DHT22;10915;54.352;9.074;2024-03-07T08:55:39;4.80;99.90
21508;DHT22;10915;54.352;9.074;2024-03-07T08:58:05;4.90;99.90
21508;DHT22;10915;54.352;9.074;2024-03-07T09:00:34;5.10;99.90
21508;DHT22;10915;54.352;9.074;2024-03-07T09:03:00;5.30;99.90
21508;DHT22;10915;54.352;9.074;2024-03-07T09:05:29;5.30;99.90
21508;DHT22;10915;54.352;9.074;2024-03-07T09:07:58;5.30;99.90
21508;DHT22;10915;54.352;9.074;2024-03-07T09:10:24;5.20;99.90
21508;DHT22;10915;54.352;9.074;2024-03-07T09:12:51;5.10;99.90
21508;DHT22;10915;54.352;9.074;2024-03-07T09:15:17;4.90;99.90
21508;DHT22;10915;54.352;9.074;2024-03-07T09:17:44;4.80;99.90
21508;DHT22;10915;54.352;9.074;2024-03-07T09:20:11;4.90;99.90
21508;DHT22;10915;54.352;9.074;2024-03-07T09:22:46;5.20;99.90
21508;DHT22;10915;54.352;9.074;2024-03-07T09:25:16;5.70;99.90
21508;DHT22;10915;54.352;9.074;2024-03-07T09:27:42;6.00;99.90
21508;DHT22;10915;54.352;9.074;2024-03-07T09:30:09;6.40;99.90
21508;DHT22;10915;54.352;9.074;2024-03-07T09:32:40;6.90;99.90
21508;DHT22;10915;54.352;9.074;2024-03-07T09:35:08;7.30;99.90
21508;DHT22;10915;54.352;9.074;2024-03-07T09:37:38;7.50;99.90
21508;DHT22;10915;54.352;9.074;2024-03-07T09:40:05;7.30;99.90
21508;DHT22;10915;54.352;9.074;2024-03-07T09:42:31;7.00;99.90
21508;DHT22;10915;54.352;9.074;2024-03-07T09:45:01;7.00;99.90
21508;DHT22;10915;54.352;9.074;2024-03-07T09:47:29;7.10;99.90
21508;DHT22;10915;54.352;9.074;2024-03-07T09:49:56;7.00;99.90
21508;DHT22;10915;54.352;9.074;2024-03-07T09:52:22;6.90;99.90
21508;DHT22;10915;54.352;9.074;2024-03-07T09:54:49;6.40;99.90
21508;DHT22;10915;54.352;9.074;2024-03-07T09:57:14;6.00;99.90
21508;DHT22;10915;54.352;9.074;2024-03-07T09:59:42;5.70;99.90
21508;DHT22;10915;54.352;9.074;2024-03-07T10:02:12;5.60;99.90
21508;DHT22;10915;54.352;9.074;2024-03-07T10:04:51;5.60;99.90
21508;DHT22;10915;54.352;9.074;2024-03-07T10:07:18;5.70;99.90
21508;DHT22;10915;54.352;9.074;2024-03-07T10:09:44;5.70;99.90
21508;DHT22;10915;54.352;9.074;2024-03-07T10:12:10;5.70;99.90
21508;DHT22;10915;54.352;9.074;2024-03-07T10:15:02;5.70;99.90
21508;DHT22;10915;54.352;9.074;2024-03-07T10:17:24;5.70;99.90
21508;DHT22;10915;54.352;9.074;2024-03-07T10:19:51;5.60;99.90
21508;DHT22;10915;54.352;9.074;2024-03-07T10:22:19;5.70;99.90
21508;DHT22;10915;54.352;9.074;2024-03-07T10:24:56;5.80;99.90
21508;DHT22;10915;54.352;9.074;2024-03-07T10:27:22;5.90;99.90
21508;DHT22;10915;54.352;9.074;2024-03-07T10:29:52;5.80;99.90
21508;DHT22;10915;54.352;9.074;2024-03-07T10:32:21;5.90;99.90
21508;DHT22;10915;54.352;9.074;2024-03-07T10:34:49;6.10;99.90
21508;DHT22;10915;54.352;9.074;2024-03-07T10:37:16;6.10;99.90
21508;DHT22;10915;54.352;9.074;2024-03-07T10:39:48;6.20;99.90
21508;DHT22;10915;54.352;9.074;2024-03-07T10:42:18;6.30;99.90
21508;DHT22;10915;54.352;9.074;2024-03-07T10:44:48;6.40;99.90
21508;DHT22;10915;54.352;9.074;2024-03-07T10:47:16;6.30;99.90
21508;DHT22;10915;54.352;9.074;2024-03-07T10:52:58;6.10;99.90
21508;DHT22;10915;54.352;9.074;2024-03-07T10:55:49;6.00;99.90
21508;DHT22;10915;54.352;9.074;2024-03-07T11:01:20;6.10;99.90
21508;DHT22;10915;54.352;9.074;2024-03-07T11:03:46;6.00;99.90
21508;DHT22;10915;54.352;9.074;2024-03-07T11:06:13;6.00;99.90
21508;DHT22;10915;54.352;9.074;2024-03-07T11:08:39;6.00;99.90
21508;DHT22;10915;54.352;9.074;2024-03-07T11:11:06;6.10;99.90
21508;DHT22;10915;54.352;9.074;2024-03-07T11:13:33;6.00;99.90
21508;DHT22;10915;54.352;9.074;2024-03-07T11:16:00;6.00;99.90
21508;DHT22;10915;54.352;9.074;2024-03-07T11:18:26;6.10;99.90
21508;DHT22;10915;54.352;9.074;2024-03-07T11:20:52;6.00;99.90
21508;DHT22;10915;54.352;9.074;2024-03-07T11:23:27;5.90;99.90
21508;DHT22;10915;54.352;9.074;2024-03-07T11:26:10;5.90;99.90
21508;DHT22;10915;54.352;9.074;2024-03-07T11:28:41;5.90;99.90
21508;DHT22;10915;54.352;9.074;2024-03-07T11:31:14;5.90;99.90
21508;DHT22;10915;54.352;9.074;2024-03-07T11:33:41;5.90;99.90
21508;DHT22;10915;54.352;9.074;2024-03-07T11:36:11;5.90;99.90
21508;DHT22;10915;54.352;9.074;2024-03-07T11:38:38;5.80;99.90
21508;DHT22;10915;54.352;9.074;2024-03-07T11:41:07;5.70;99.90
21508;DHT22;10915;54.352;9.074;2024-03-07T11:43:43;5.70;99.90
21508;DHT22;10915;54.352;9.074;2024-03-07T11:46:10;5.60;99.90
21508;DHT22;10915;54.352;9.074;2024-03-07T11:48:42;5.60;99.90
21508;DHT22;10915;54.352;9.074;2024-03-07T11:51:11;5.60;99.90
21508;DHT22;10915;54.352;9.074;2024-03-07T11:53:40;5.70;99.90
21508;DHT22;10915;54.352;9.074;2024-03-07T11:56:06;5.60;99.90
21508;DHT22;10915;54.352;9.074;2024-03-07T11:58:38;5.60;99.90
21508;DHT22;10915;54.352;9.074;2024-03-07T12:01:06;5.60;99.90
21508;DHT22;10915;54.352;9.074;2024-03-07T12:03:36;5.70;99.90
21508;DHT22;10915;54.352;9.074;2024-03-07T12:06:03;5.60;99.90
21508;DHT22;10915;54.352;9.074;2024-03-07T12:08:29;5.60;99.90
21508;DHT22;10915;54.352;9.074;2024-03-07T12:10:55;5.70;99.90
21508;DHT22;10915;54.352;9.074;2024-03-07T12:13:22;5.70;99.90
21508;DHT22;10915;54.352;9.074;2024-03-07T12:15:48;5.60;99.90
21508;DHT22;10915;54.352;9.074;2024-03-07T12:18:17;5.60;99.90
21508;DHT22;10915;54.352;9.074;2024-03-07T12:20:44;5.70;99.90
21508;DHT22;10915;54.352;9.074;2024-03-07T12:23:22;5.70;99.90
21508;DHT22;10915;54.352;9.074;2024-03-07T12:26:02;5.80;99.90
21508;DHT22;10915;54.352;9.074;2024-03-07T12:28:28;5.80;99.90
21508;DHT22;10915;54.352;9.074;2024-03-07T12:30:59;5.80;99.90
21508;DHT22;10915;54.352;9.074;2024-03-07T12:33:29;5.80;99.90
21508;DHT22;10915;54.352;9.074;2024-03-07T12:35:55;5.80;99.90
21508;DHT22;10915;54.352;9.074;2024-03-07T12:38:31;5.90;99.90
21508;DHT22;10915;54.352;9.074;2024-03-07T12:41:07;5.90;99.90
21508;DHT22;10915;54.352;9.074;2024-03-07T12:43:39;5.90;99.90
21508;DHT22;10915;54.352;9.074;2024-03-07T12:46:10;5.90;99.90
21508;DHT22;10915;54.352;9.074;2024-03-07T12:48:37;5.90;99.90
21508;DHT22;10915;54.352;9.074;2024-03-07T12:51:04;6.00;99.90
21508;DHT22;10915;54.352;9.074;2024-03-07T12:53:30;6.00;99.90
21508;DHT22;10915;54.352;9.074;2024-03-07T12:55:57;6.00;99.90
21508;DHT22;10915;54.352;9.074;2024-03-07T12:58:22;6.10;99.90
21508;DHT22;10915;54.352;9.074;2024-03-07T13:00:51;6.10;99.90
21508;DHT22;10915;54.352;9.074;2024-03-07T13:03:18;6.10;99.90
21508;DHT22;10915;54.352;9.074;2024-03-07T13:05:44;6.10;99.90
21508;DHT22;10915;54.352;9.074;2024-03-07T13:08:10;6.10;99.90
21508;DHT22;10915;54.352;9.074;2024-03-07T13:10:42;6.20;99.90
21508;DHT22;10915;54.352;9.074;2024-03-07T13:13:08;6.20;99.90
21508;DHT22;10915;54.352;9.074;2024-03-07T13:15:40;6.20;99.90
21508;DHT22;10915;54.352;9.074;2024-03-07T13:18:08;6.10;99.90
21508;DHT22;10915;54.352;9.074;2024-03-07T13:20:34;6.10;99.90
21508;DHT22;10915;54.352;9.074;2024-03-07T13:23:00;6.10;99.90
21508;DHT22;10915;54.352;9.074;2024-03-07T13:25:29;6.20;99.90
21508;DHT22;10915;54.352;9.074;2024-03-07T13:28:13;6.20;99.90
21508;DHT22;10915;54.352;9.074;2024-03-07T13:30:42;6.10;99.90
21508;DHT22;10915;54.352;9.074;2024-03-07T13:33:09;6.10;99.90
21508;DHT22;10915;54.352;9.074;2024-03-07T13:35:38;6.10;99.90
21508;DHT22;10915;54.352;9.074;2024-03-07T13:38:03;6.00;99.90
21508;DHT22;10915;54.352;9.074;2024-03-07T13:40:29;6.00;99.90
21508;DHT22;10915;54.352;9.074;2024-03-07T13:43:00;6.10;99.90
21508;DHT22;10915;54.352;9.074;2024-03-07T13:45:30;6.10;99.90
21508;DHT22;10915;54.352;9.074;2024-03-07T13:47:57;6.00;99.90
21508;DHT22;10915;54.352;9.074;2024-03-07T13:50:26;6.00;99.90
21508;DHT22;10915;54.352;9.074;2024-03-07T13:52:55;5.90;99.90
21508;DHT22;10915;54.352;9.074;2024-03-07T13:55:34;5.90;99.90
21508;DHT22;10915;54.352;9.074;2024-03-07T13:58:07;5.90;99.90
21508;DHT22;10915;54.352;9.074;2024-03-07T14:00:55;5.80;99.90
21508;DHT22;10915;54.352;9.074;2024-03-07T14:03:43;5.80;99.90
21508;DHT22;10915;54.352;9.074;2024-03-07T14:06:31;5.80;99.90
21508;DHT22;10915;54.352;9.074;2024-03-07T14:09:26;5.80;99.90
21508;DHT22;10915;54.352;9.074;2024-03-07T14:12:12;5.90;99.90
21508;DHT22;10915;54.352;9.074;2024-03-07T14:29:42;5.90;99.90
21508;DHT22;10915;54.352;9.074;2024-03-07T14:32:11;5.90;99.90
21508;DHT22;10915;54.352;9.074;2024-03-07T14:37:46;5.90;99.90
21508;DHT22;10915;54.352;9.074;2024-03-07T14:40:16;5.90;99.90
21508;DHT22;10915;54.352;9.074;2024-03-07T14:42:46;5.90;99.90
21508;DHT22;10915;54.352;9.074;2024-03-07T14:45:18;5.80;99.90
21508;DHT22;10915;54.352;9.074;2024-03-07T14:47:47;5.80;99.90
21508;DHT22;10915;54.352;9.074;2024-03-07T14:50:14;5.80;99.90
21508;DHT22;10915;54.352;9.074;2024-03-07T14:52:44;5.80;99.90
21508;DHT22;10915;54.352;9.074;2024-03-07T14:55:11;5.80;99.90
21508;DHT22;10915;54.352;9.074;2024-03-07T14:57:40;5.70;99.90
21508;DHT22;10915;54.352;9.074;2024-03-07T15:00:08;5.70;99.90
21508;DHT22;10915;54.352;9.074;2024-03-07T15:02:48;5.70;99.90
21508;DHT22;10915;54.352;9.074;2024-03-07T15:05:15;5.80;99.90
21508;DHT22;10915;54.352;9.074;2024-03-07T15:07:43;5.80;99.90
21508;DHT22;10915;54.352;9.074;2024-03-07T15:10:14;5.80;99.90
21508;DHT22;10915;54.352;9.074;2024-03-07T15:12:45;5.80;99.90
21508;DHT22;10915;54.352;9.074;2024-03-07T15:15:13;5.80;99.90
21508;DHT22;10915;54.352;9.074;2024-03-07T15:17:40;5.80;99.90
21508;DHT22;10915;54.352;9.074;2024-03-07T15:20:10;5.80;99.90
21508;DHT22;10915;54.352;9.074;2024-03-07T15:22:48;5.60;99.90
21508;DHT22;10915;54.352;9.074;2024-03-07T15:25:14;5.50;99.90
21508;DHT22;10915;54.352;9.074;2024-03-07T15:27:46;5.50;99.90
21508;DHT22;10915;54.352;9.074;2024-03-07T15:30:19;5.50;99.90
21508;DHT22;10915;54.352;9.074;2024-03-07T15:32:45;5.50;99.90
21508;DHT22;10915;54.352;9.074;2024-03-07T15:35:12;5.40;99.90
21508;DHT22;10915;54.352;9.074;2024-03-07T15:37:49;5.40;99.90
21508;DHT22;10915;54.352;9.074;2024-03-07T15:40:16;5.40;99.90
21508;DHT22;10915;54.352;9.074;2024-03-07T15:42:43;5.50;99.90
21508;DHT22;10915;54.352;9.074;2024-03-07T15:45:13;5.60;99.90
21508;DHT22;10915;54.352;9.074;2024-03-07T15:47:58;5.50;99.90
21508;DHT22;10915;54.352;9.074;2024-03-07T15:50:35;5.30;99.90
21508;DHT22;10915;54.352;9.074;2024-03-07T15:53:02;5.30;99.90
21508;DHT22;10915;54.352;9.074;2024-03-07T15:55:30;5.20;99.90
21508;DHT22;10915;54.352;9.074;2024-03-07T15:57:59;5.10;99.90
21508;DHT22;10915;54.352;9.074;2024-03-07T16:00:30;5.00;99.90
21508;DHT22;10915;54.352;9.074;2024-03-07T16:03:00;5.00;99.90
21508;DHT22;10915;54.352;9.074;2024-03-07T16:05:30;4.90;99.90
21508;DHT22;10915;54.352;9.074;2024-03-07T16:07:58;4.90;99.90
21508;DHT22;10915;54.352;9.074;2024-03-07T16:10:29;4.90;99.90
21508;DHT22;10915;54.352;9.074;2024-03-07T16:13:00;4.90;99.90
21508;DHT22;10915;54.352;9.074;2024-03-07T16:15:27;4.90;99.90
21508;DHT22;10915;54.352;9.074;2024-03-07T16:17:54;4.90;99.90
21508;DHT22;10915;54.352;9.074;2024-03-07T16:20:24;4.80;99.90
21508;DHT22;10915;54.352;9.074;2024-03-07T16:22:50;4.80;99.90
21508;DHT22;10915;54.352;9.074;2024-03-07T16:25:17;4.80;99.90